Latest Coastal Weather Observations for Port Augusta

IDS60701

Issued at 1:31 pm CST Saturday 28 May 2016 (issued every 10 minutes, with the page automatically refreshed every 10 minutes)

About coastal observations | Map of coastal stations | Coastal observations for SA | Marine services | Other Formats
Station Details ID: 018201 Name: PORT AUGUSTA AERO Lat: -32.51 Lon: 137.72 Height: 13.97 m
Data from the previous 72 hours. | See also: Recent months at Port Augusta
Date/Time
CST
Temp

°C
Wind Pressure Rain
since 9am
mm
Weather Cloud Vis
km
Sea
Height
m
Swell
Dir
 
Speed
knots
Gust
knots
hPa Trend Height
m
Period
s
Dir
28/01:30pm 15.6 ESE 8 12 1016.9 - 0.0 - Partly cloudy 10 - - - -
28/01:00pm 15.5 SE 8 10 1016.9 - 0.0 - Partly cloudy 10 - - - -
28/12:30pm 15.8 SSE 5 7 1017.1 - 0.0 - Partly cloudy 10 - - - -
28/12:00pm 14.2 SE 8 12 1017.4 - 0.0 Drizzle Cloudy 10 - - - -
28/11:30am 15.3 ESE 10 13 1017.4 - 0.0 - Partly cloudy 10 - - - -
28/11:00am 15.4 SSW 7 10 1017.4 - 0.0 - Partly cloudy 10 - - - -
28/10:30am 15.2 SW 8 11 1017.6 - 0.0 - Partly cloudy 10 - - - -
28/10:00am 14.2 SW 6 9 1017.9 - 0.0 - Partly cloudy 10 - - - -
28/09:30am 12.4 SW 9 12 1017.5 - 0.0 - Partly cloudy 10 - - - -
28/09:00am 12.4 SW 11 14 1017.2 - 1.4 - - 10 - - - -
28/08:30am 11.3 SSW 10 12 1016.8 - 1.4 - - 10 - - - -
28/08:00am 11.0 SW 14 18 1016.3 - 1.4 - - 10 - - - -
28/07:30am 10.5 SW 14 18 1015.9 - 1.4 - - 10 - - - -
28/07:00am 10.1 SW 13 16 1015.8 - 1.4 - - 10 - - - -
28/06:30am 10.1 SW 7 10 1015.8 - 1.4 - Partly cloudy 10 - - - -
28/06:00am 10.8 WSW 9 13 1015.7 - 1.4 - Cloudy 10 - - - -
28/05:30am 11.0 W 11 16 1015.2 - 1.4 - Partly cloudy 10 - - - -
28/05:00am 11.0 W 13 18 1014.7 - 1.4 - Cloudy 10 - - - -
28/04:30am 10.3 WNW 11 15 1014.8 - 1.4 - Cloudy 10 - - - -
28/04:00am 10.0 WNW 9 12 1014.8 - 1.4 - Partly cloudy 10 - - - -
28/03:30am 10.2 NW 9 11 1015.0 - 1.4 - Partly cloudy 10 - - - -
28/03:00am 10.3 WNW 10 11 1015.1 - 1.4 - Cloudy 10 - - - -
28/02:30am 10.4 WNW 9 11 1015.2 - 1.4 - Partly cloudy 10 - - - -
28/02:00am 10.0 WNW 8 11 1015.4 - 1.4 - Partly cloudy 10 - - - -
28/01:30am 10.0 NW 8 10 1015.5 - 1.4 - Partly cloudy 10 - - - -
28/01:00am 9.6 N 6 9 1015.4 - 1.4 - Partly cloudy 10 - - - -
28/12:30am 9.3 NNW 8 9 1015.4 - 1.4 - Partly cloudy 10 - - - -
28/12:00am 8.9 N 8 8 1015.5 - 1.2 - Partly cloudy 10 - - - -
 
Date/Time
CST
Temp

°C
Wind Pressure Rain
since 9am
mm
Weather Cloud Vis
km
Sea
Height
m
Swell
Dir
 
Speed
knots
Gust
knots
hPa Trend Height
m
Period
s
Dir
27/11:30pm 8.3 N 6 7 1015.5 - 1.2 - - 10 - - - -
27/11:00pm 9.1 N 6 8 1015.3 - 1.2 - - 10 - - - -
27/10:30pm 9.6 NNE 4 6 1015.1 - 1.2 - Partly cloudy 10 - - - -
27/10:00pm 11.1 WSW 8 11 1015.0 - 1.2 - - 10 - - - -
27/09:30pm 11.4 WSW 11 14 1014.8 - 1.2 - - 10 - - - -
27/09:00pm 11.5 WSW 11 13 1014.7 - 1.2 - - 10 - - - -
27/08:30pm 11.6 WSW 10 12 1014.5 - 1.2 - - 10 - - - -
27/08:00pm 11.9 W 10 14 1014.5 - 1.2 - - 10 - - - -
27/07:30pm 12.1 WSW 11 15 1014.3 - 1.2 - - 10 - - - -
27/07:00pm 12.7 WSW 17 22 1013.8 - 1.2 - - 10 - - - -
27/06:30pm 13.1 WSW 20 27 1013.4 - 1.2 - - 10 - - - -
27/06:00pm 13.5 WSW 16 21 1013.1 - 1.2 - - 10 - - - -
27/05:30pm 14.2 WSW 19 27 1012.6 - 1.2 - - 10 - - - -
27/05:00pm 15.0 WSW 20 31 1012.0 - 1.2 - - 10 - - - -
27/04:48pm 15.1 WSW 16 26 1012.0 - 1.2 - - 10 - - - -
27/04:30pm 15.2 WSW 16 22 1011.9 - 1.2 - - 10 - - - -
27/04:00pm 14.7 WSW 17 25 1011.7 - 1.2 - Partly cloudy 10 - - - -
27/03:30pm 13.8 W 13 23 1011.7 - 1.2 - Partly cloudy 10 - - - -
27/03:00pm 13.9 W 12 17 1011.7 - 1.2 Showers Mostly cloudy 10 - - - -
27/02:54pm 13.5 WSW 10 14 1011.8 - 1.2 - Partly cloudy 10 - - - -
27/02:30pm 13.8 WSW 16 22 1011.6 - 0.8 - Partly cloudy 8 - - - -
27/02:20pm 14.0 W 18 25 1011.5 - 0.6 - Partly cloudy 4 - - - -
27/02:00pm 14.3 W 16 22 1011.3 - 0.4 - Partly cloudy 10 - - - -
27/01:30pm 14.4 W 23 31 1011.4 - 0.0 - Partly cloudy 10 - - - -
27/01:22pm 16.7 WNW 19 29 1011.0 - 0.0 - Partly cloudy 10 - - - -
27/01:00pm 17.8 WNW 18 23 1011.0 - 0.0 - Partly cloudy 10 - - - -
27/12:30pm 17.8 WNW 17 23 1011.6 - 0.0 - Partly cloudy 10 - - - -
27/12:00pm 17.9 WNW 16 22 1012.4 - 0.0 - Cloudy 10 - - - -
27/11:30am 17.5 WNW 17 23 1012.9 - 0.0 - Partly cloudy 10 - - - -
27/11:00am 17.2 WNW 17 23 1013.2 - 0.0 - Partly cloudy 10 - - - -
27/10:30am 16.5 WNW 17 21 1013.2 - 0.0 - - 10 - - - -
27/10:00am 15.7 W 18 22 1013.4 - 0.0 - - 10 - - - -
27/09:30am 14.7 W 16 21 1013.4 - 0.0 - - 10 - - - -
27/09:00am 14.1 W 16 21 1013.4 - 0.0 - Mostly clear 10 - - - -
27/08:30am 13.3 WNW 14 18 1013.3 - 0.0 - Partly cloudy 10 - - - -
27/08:00am 13.0 WNW 13 17 1013.4 - 0.0 - Partly cloudy 10 - - - -
27/07:30am 10.7 WNW 3 5 1013.5 - 0.0 - Partly cloudy 10 - - - -
27/07:00am 10.4 NW 2 5 1013.5 - 0.0 - Partly cloudy 10 - - - -
27/06:30am 9.5 CALM 0 0 1013.4 - 0.0 - Partly cloudy 10 - - - -
27/06:00am 9.8 CALM 0 0 1013.2 - 0.0 - Mostly clear 10 - - - -
27/05:30am 10.0 N 1 4 1013.1 - 0.0 - - 10 - - - -
27/05:00am 10.1 N 5 6 1013.1 - 0.0 - Partly cloudy 10 - - - -
27/04:30am 10.6 N 7 9 1013.2 - 0.0 - Partly cloudy 10 - - - -
27/04:00am 10.5 N 5 7 1013.2 - 0.0 - Partly cloudy 10 - - - -
27/03:30am 10.1 NNW 4 6 1013.4 - 0.0 - Partly cloudy 10 - - - -
27/03:00am 9.7 N 6 7 1013.6 - 0.0 - Partly cloudy 10 - - - -
27/02:30am 10.1 NNW 5 6 1013.7 - 0.0 - Partly cloudy 10 - - - -
27/02:00am 10.1 NNW 6 7 1013.9 - 0.0 - Partly cloudy 10 - - - -
27/01:30am 10.0 NW 5 6 1013.9 - 0.0 - Partly cloudy 10 - - - -
27/01:00am 9.9 NW 4 4 1013.8 - 0.0 - Partly cloudy 10 - - - -
27/12:30am 10.8 W 5 7 1014.1 - 0.0 - Partly cloudy 10 - - - -
27/12:00am 9.9 WSW 5 7 1014.0 - 0.0 - Mostly cloudy 10 - - - -
 
Date/Time
CST
Temp

°C
Wind Pressure Rain
since 9am
mm
Weather Cloud Vis
km
Sea
Height
m
Swell
Dir
 
Speed
knots
Gust
knots
hPa Trend Height
m
Period
s
Dir
26/11:30pm 9.8 W 4 5 1014.0 - 0.0 - Partly cloudy 10 - - - -
26/11:00pm 9.7 W 4 5 1013.9 - 0.0 - Partly cloudy 10 - - - -
26/10:30pm 10.1 W 2 4 1013.9 - 0.0 - - 10 - - - -
26/10:00pm 10.0 SE 5 5 1014.1 - 0.0 - Partly cloudy 10 - - - -
26/09:30pm 10.6 SE 1 4 1014.2 - 0.0 - - 10 - - - -
26/09:00pm 11.0 CALM 0 0 1014.0 - 0.0 - - 10 - - - -
26/08:30pm 11.5 SE 2 3 1014.3 - 0.0 - - 10 - - - -
26/08:00pm 12.1 CALM 0 4 1014.2 - 0.0 - - 10 - - - -
26/07:30pm 13.4 SE 4 5 1013.3 - 0.0 - Partly cloudy 10 - - - -
26/07:00pm 13.3 SE 1 5 1012.9 - 0.0 - - 10 - - - -
26/06:30pm 13.6 SE 4 6 1012.5 - 0.0 - - 10 - - - -
26/06:00pm 14.4 ESE 5 8 1012.0 - 0.0 - Partly cloudy 10 - - - -
26/05:30pm 15.3 SE 7 9 1011.9 - 0.0 - Partly cloudy 10 - - - -
26/05:00pm 15.9 SE 7 10 1011.9 - 0.0 - Partly cloudy 10 - - - -
26/04:30pm 16.3 ESE 8 11 1011.9 - 0.0 - Partly cloudy 10 - - - -
26/04:00pm 16.7 SE 9 12 1011.5 - 0.0 - Partly cloudy 10 - - - -
26/03:30pm 17.9 SSE 10 13 1011.3 - 0.0 - Partly cloudy 10 - - - -
26/03:00pm 18.0 SSE 7 11 1010.9 - 0.0 - Partly cloudy 10 - - - -
26/02:30pm 19.2 WSW 12 19 1010.7 - 0.0 - Partly cloudy 10 - - - -
26/02:00pm 18.8 SW 10 23 1010.4 - 0.0 - Partly cloudy 10 - - - -
26/01:30pm 18.2 SSW 10 13 1010.9 - 0.0 - Partly cloudy 10 - - - -
26/01:00pm 18.3 SW 11 15 1011.0 - 0.0 - - 10 - - - -
26/12:30pm 18.0 SW 11 15 1011.1 - 0.0 - Partly cloudy 10 - - - -
26/12:00pm 17.7 SW 10 13 1011.2 - 0.0 - Mostly clear 10 - - - -
26/11:30am 16.5 SW 12 15 1011.5 - 0.0 - - 10 - - - -
26/11:00am 16.0 SW 12 16 1011.8 - 0.0 - - 10 - - - -
26/10:30am 15.5 SW 13 17 1011.8 - 0.0 - - 10 - - - -
26/10:00am 14.8 SW 14 17 1011.9 - 0.0 - - 10 - - - -
26/09:30am 14.0 SW 15 19 1011.4 - 0.0 - - 10 - - - -
26/09:00am 13.4 SW 15 18 1011.2 - 9.0 - - 10 - - - -
26/08:30am 13.2 SW 13 15 1011.1 - 9.0 - - 10 - - - -
26/08:00am 12.6 SW 10 12 1011.0 - 9.0 - - 10 - - - -
26/07:30am 12.2 SW 10 11 1010.6 - 9.0 - - 10 - - - -
26/07:00am 12.5 SW 11 13 1010.3 - 9.0 - - 10 - - - -
26/06:30am 13.0 SW 13 15 1009.9 - 8.8 - - 10 - - - -
26/06:00am 13.0 SSW 5 7 1009.9 - 8.8 - - 10 - - - -
26/05:44am 13.3 SW 4 6 1009.8 - 8.8 - Partly cloudy 10 - - - -
26/05:30am 13.7 SW 6 9 1009.8 - 8.8 - Partly cloudy 10 - - - -
26/05:00am 14.2 WSW 11 13 1009.3 - 8.8 - Partly cloudy 10 - - - -
26/04:56am 14.2 WSW 10 13 1009.3 - 8.8 - Partly cloudy 10 - - - -
26/04:30am 14.2 W 10 12 1009.0 - 8.8 - Partly cloudy 10 - - - -
26/04:00am 14.6 WNW 9 13 1008.8 - 8.8 - Partly cloudy 10 - - - -
26/03:36am 14.2 NW 7 7 1008.8 - 8.8 - Partly cloudy 10 - - - -
26/03:30am 14.2 NW 6 7 1008.9 - 8.8 - Partly cloudy 10 - - - -
26/03:21am 14.1 NW 3 5 1009.0 - 8.8 - Partly cloudy 10 - - - -
26/03:00am 14.2 N 6 8 1009.1 - 8.8 - Cloudy 10 - - - -
26/02:30am 14.2 N 5 7 1009.0 - 8.8 - Partly cloudy 10 - - - -
26/02:00am 14.2 N 5 8 1009.1 - 8.8 - Cloudy 10 - - - -
26/01:30am 14.1 NNW 6 8 1008.9 - 8.8 - Partly cloudy 10 - - - -
26/01:24am 14.1 NNW 6 7 1008.9 - 8.8 - Partly cloudy 10 - - - -
26/01:00am 14.2 NW 5 7 1008.9 - 8.8 - Partly cloudy 10 - - - -
26/12:30am 13.8 N 10 15 1008.8 - 8.8 - Partly cloudy 10 - - - -
26/12:00am 13.7 N 9 11 1008.9 - 8.8 Rain Cloudy 10 - - - -
 
Date/Time
CST
Temp

°C
Wind Pressure Rain
since 9am
mm
Weather Cloud Vis
km
Sea
Height
m
Swell
Dir
 
Speed
knots
Gust
knots
hPa Trend Height
m
Period
s
Dir
25/11:51pm 13.7 N 9 11 1009.0 - 8.8 - Partly cloudy 10 - - - -
25/11:30pm 13.7 N 10 13 1009.5 - 8.8 - Partly cloudy 10 - - - -
25/11:00pm 13.7 N 9 13 1009.8 - 8.6 - Partly cloudy 10 - - - -
25/10:30pm 13.8 NNW 8 11 1009.9 - 7.6 - Cloudy 10 - - - -
25/10:12pm 13.8 N 10 13 1010.0 - 7.6 - Partly cloudy 10 - - - -
25/10:00pm 13.8 NNW 10 12 1009.9 - 7.4 - Partly cloudy 10 - - - -
25/09:30pm 13.9 NNW 10 12 1009.9 - 7.2 - Partly cloudy 10 - - - -
25/09:00pm 13.9 NNW 9 12 1009.8 - 7.0 Showers Cloudy 10 - - - -
25/08:30pm 13.8 N 13 16 1009.3 - 6.8 - Partly cloudy 10 - - - -
25/08:00pm 13.8 N 11 14 1009.4 - 6.4 - Partly cloudy 10 - - - -
25/07:30pm 13.7 N 12 16 1009.5 - 6.0 - Partly cloudy 10 - - - -
25/07:00pm 13.6 N 12 15 1009.4 - 5.8 - Partly cloudy 10 - - - -
25/06:30pm 13.7 N 12 15 1009.5 - 5.4 - Partly cloudy 10 - - - -
25/06:00pm 13.7 N 14 19 1009.9 - 4.6 Rain Mostly cloudy 10 - - - -
25/05:30pm 13.5 NNW 11 16 1009.4 - 4.2 - Partly cloudy 10 - - - -
25/05:00pm 13.4 NNW 6 8 1008.9 - 4.2 - Partly cloudy 10 - - - -
25/04:30pm 13.3 NNE 1 4 1008.5 - 4.2 - Partly cloudy 10 - - - -
25/04:00pm 13.0 NW 7 10 1010.2 - 3.8 - Partly cloudy 10 - - - -
25/03:30pm 12.9 NNW 7 11 1010.6 - 2.8 - Partly cloudy 10 - - - -
25/03:00pm 12.8 NNW 11 14 1010.9 - 2.4 Rain Cloudy 10 - - - -
25/02:30pm 13.0 NNW 11 15 1010.3 - 1.4 - Partly cloudy 10 - - - -
25/02:00pm 13.2 N 13 16 1009.5 - 0.8 - Cloudy 10 - - - -

Other Formats:

Comma delimited format used in spreadsheet applications
http://www.bom.gov.au/fwo/IDS60701/IDS60701.95666.axf

JavaScript Object Notation format (JSON) in row-major order
http://www.bom.gov.au/fwo/IDS60701/IDS60701.95666.json